sensor_id;sensor_type;location;lat;lon;timestamp;P1;durP1;ratioP1;P2;durP2;ratioP2
53871;SDS011;39787;53.174;5.798;2022-08-21T00:00:19;9.90;;;3.93;;
53871;SDS011;39787;53.174;5.798;2022-08-21T00:01:24;12.25;;;4.75;;
53871;SDS011;39787;53.174;5.798;2022-08-21T00:02:27;19.15;;;4.93;;
53871;SDS011;39787;53.174;5.798;2022-08-21T00:03:28;16.73;;;4.47;;
53871;SDS011;39787;53.174;5.798;2022-08-21T00:04:29;11.77;;;4.77;;
53871;SDS011;39787;53.174;5.798;2022-08-21T00:05:30;12.63;;;4.55;;
53871;SDS011;39787;53.174;5.798;2022-08-21T00:06:32;12.65;;;4.40;;
53871;SDS011;39787;53.174;5.798;2022-08-21T00:07:32;16.80;;;5.17;;
53871;SDS011;39787;53.174;5.798;2022-08-21T00:08:33;16.43;;;5.30;;
53871;SDS011;39787;53.174;5.798;2022-08-21T00:09:33;18.40;;;5.63;;
53871;SDS011;39787;53.174;5.798;2022-08-21T00:10:34;14.40;;;4.67;;
53871;SDS011;39787;53.174;5.798;2022-08-21T00:11:36;11.13;;;4.65;;
53871;SDS011;39787;53.174;5.798;2022-08-21T00:12:38;15.85;;;5.38;;
53871;SDS011;39787;53.174;5.798;2022-08-21T00:13:40;10.68;;;4.35;;
53871;SDS011;39787;53.174;5.798;2022-08-21T00:14:40;13.00;;;4.80;;
53871;SDS011;39787;53.174;5.798;2022-08-21T00:15:41;17.10;;;5.00;;
53871;SDS011;39787;53.174;5.798;2022-08-21T00:16:42;18.52;;;6.05;;
53871;SDS011;39787;53.174;5.798;2022-08-21T00:17:42;13.20;;;5.13;;
53871;SDS011;39787;53.174;5.798;2022-08-21T00:18:43;12.60;;;4.83;;
53871;SDS011;39787;53.174;5.798;2022-08-21T00:19:43;13.23;;;4.80;;
53871;SDS011;39787;53.174;5.798;2022-08-21T00:20:45;14.37;;;4.97;;
53871;SDS011;39787;53.174;5.798;2022-08-21T00:21:46;15.30;;;5.03;;
53871;SDS011;39787;53.174;5.798;2022-08-21T00:22:47;10.03;;;4.67;;
53871;SDS011;39787;53.174;5.798;2022-08-21T00:23:48;12.52;;;4.82;;
53871;SDS011;39787;53.174;5.798;2022-08-21T00:24:49;13.67;;;4.97;;
53871;SDS011;39787;53.174;5.798;2022-08-21T00:25:49;14.07;;;5.23;;
53871;SDS011;39787;53.174;5.798;2022-08-21T00:26:50;12.43;;;4.63;;
53871;SDS011;39787;53.174;5.798;2022-08-21T00:27:51;11.68;;;4.47;;
53871;SDS011;39787;53.174;5.798;2022-08-21T00:28:52;10.65;;;4.63;;
53871;SDS011;39787;53.174;5.798;2022-08-21T00:29:53;10.05;;;4.45;;
53871;SDS011;39787;53.174;5.798;2022-08-21T00:30:53;10.57;;;4.10;;
53871;SDS011;39787;53.174;5.798;2022-08-21T00:31:54;8.57;;;3.80;;
53871;SDS011;39787;53.174;5.798;2022-08-21T00:32:55;9.90;;;5.10;;
53871;SDS011;39787;53.174;5.798;2022-08-21T00:33:56;11.45;;;4.93;;
53871;SDS011;39787;53.174;5.798;2022-08-21T00:34:57;10.80;;;4.83;;
53871;SDS011;39787;53.174;5.798;2022-08-21T00:35:57;10.57;;;4.73;;
53871;SDS011;39787;53.174;5.798;2022-08-21T00:36:58;16.20;;;5.07;;
53871;SDS011;39787;53.174;5.798;2022-08-21T00:37:58;8.80;;;4.50;;
53871;SDS011;39787;53.174;5.798;2022-08-21T00:38:59;11.13;;;4.97;;
53871;SDS011;39787;53.174;5.798;2022-08-21T00:40:00;10.75;;;4.97;;
53871;SDS011;39787;53.174;5.798;2022-08-21T00:41:01;13.80;;;4.10;;
53871;SDS011;39787;53.174;5.798;2022-08-21T00:42:04;13.45;;;5.47;;
53871;SDS011;39787;53.174;5.798;2022-08-21T00:43:05;12.43;;;4.60;;
53871;SDS011;39787;53.174;5.798;2022-08-21T00:44:08;11.93;;;4.68;;
53871;SDS011;39787;53.174;5.798;2022-08-21T00:45:11;13.68;;;4.70;;
53871;SDS011;39787;53.174;5.798;2022-08-21T00:46:11;12.88;;;4.50;;
53871;SDS011;39787;53.174;5.798;2022-08-21T00:47:12;10.87;;;4.90;;
53871;SDS011;39787;53.174;5.798;2022-08-21T00:48:13;11.05;;;4.57;;
53871;SDS011;39787;53.174;5.798;2022-08-21T00:49:14;11.13;;;4.27;;
53871;SDS011;39787;53.174;5.798;2022-08-21T00:50:14;7.50;;;3.85;;
53871;SDS011;39787;53.174;5.798;2022-08-21T00:51:17;11.83;;;4.47;;
53871;SDS011;39787;53.174;5.798;2022-08-21T00:52:21;9.70;;;4.38;;
53871;SDS011;39787;53.174;5.798;2022-08-21T00:53:24;9.98;;;4.38;;
53871;SDS011;39787;53.174;5.798;2022-08-21T00:54:25;12.32;;;4.82;;
53871;SDS011;39787;53.174;5.798;2022-08-21T00:55:27;12.40;;;4.65;;
53871;SDS011;39787;53.174;5.798;2022-08-21T00:56:29;10.70;;;4.65;;
53871;SDS011;39787;53.174;5.798;2022-08-21T00:57:39;12.33;;;4.80;;
53871;SDS011;39787;53.174;5.798;2022-08-21T00:58:44;9.77;;;4.70;;
53871;SDS011;39787;53.174;5.798;2022-08-21T00:59:46;12.43;;;4.40;;
53871;SDS011;39787;53.174;5.798;2022-08-21T01:00:49;8.23;;;4.35;;
53871;SDS011;39787;53.174;5.798;2022-08-21T01:01:50;11.65;;;4.72;;
53871;SDS011;39787;53.174;5.798;2022-08-21T01:02:51;12.52;;;4.97;;
53871;SDS011;39787;53.174;5.798;2022-08-21T01:03:52;10.17;;;4.77;;
53871;SDS011;39787;53.174;5.798;2022-08-21T01:04:52;10.63;;;4.90;;
53871;SDS011;39787;53.174;5.798;2022-08-21T01:05:54;10.52;;;4.72;;
53871;SDS011;39787;53.174;5.798;2022-08-21T01:06:54;8.43;;;4.77;;
53871;SDS011;39787;53.174;5.798;2022-08-21T01:07:55;12.30;;;5.25;;
53871;SDS011;39787;53.174;5.798;2022-08-21T01:08:56;9.82;;;4.85;;
53871;SDS011;39787;53.174;5.798;2022-08-21T01:09:56;11.40;;;5.07;;
53871;SDS011;39787;53.174;5.798;2022-08-21T01:10:57;10.32;;;4.90;;
53871;SDS011;39787;53.174;5.798;2022-08-21T01:11:59;13.80;;;5.10;;
53871;SDS011;39787;53.174;5.798;2022-08-21T01:13:00;12.48;;;5.40;;
53871;SDS011;39787;53.174;5.798;2022-08-21T01:14:02;15.43;;;5.85;;
53871;SDS011;39787;53.174;5.798;2022-08-21T01:15:03;14.43;;;6.38;;
53871;SDS011;39787;53.174;5.798;2022-08-21T01:16:08;8.32;;;5.13;;
53871;SDS011;39787;53.174;5.798;2022-08-21T01:17:09;10.95;;;5.78;;
53871;SDS011;39787;53.174;5.798;2022-08-21T01:18:13;10.38;;;5.50;;
53871;SDS011;39787;53.174;5.798;2022-08-21T01:19:14;11.02;;;5.25;;
53871;SDS011;39787;53.174;5.798;2022-08-21T01:20:16;11.60;;;5.50;;
53871;SDS011;39787;53.174;5.798;2022-08-21T01:21:19;10.82;;;5.47;;
53871;SDS011;39787;53.174;5.798;2022-08-21T01:22:25;13.27;;;5.38;;
53871;SDS011;39787;53.174;5.798;2022-08-21T01:23:26;13.65;;;6.63;;
53871;SDS011;39787;53.174;5.798;2022-08-21T01:24:26;13.30;;;6.60;;
53871;SDS011;39787;53.174;5.798;2022-08-21T01:25:27;14.80;;;6.43;;
53871;SDS011;39787;53.174;5.798;2022-08-21T01:26:28;15.10;;;6.37;;
53871;SDS011;39787;53.174;5.798;2022-08-21T01:27:31;12.52;;;5.47;;
53871;SDS011;39787;53.174;5.798;2022-08-21T01:28:33;11.90;;;5.70;;
53871;SDS011;39787;53.174;5.798;2022-08-21T01:29:39;12.10;;;5.20;;
53871;SDS011;39787;53.174;5.798;2022-08-21T01:30:46;11.27;;;5.50;;
53871;SDS011;39787;53.174;5.798;2022-08-21T01:31:49;12.60;;;6.15;;
53871;SDS011;39787;53.174;5.798;2022-08-21T01:32:50;15.20;;;6.28;;
53871;SDS011;39787;53.174;5.798;2022-08-21T01:33:52;10.27;;;5.50;;
53871;SDS011;39787;53.174;5.798;2022-08-21T01:34:54;10.40;;;5.47;;
53871;SDS011;39787;53.174;5.798;2022-08-21T01:35:55;8.53;;;6.00;;
53871;SDS011;39787;53.174;5.798;2022-08-21T01:36:55;12.13;;;5.67;;
53871;SDS011;39787;53.174;5.798;2022-08-21T01:37:56;12.03;;;5.50;;
53871;SDS011;39787;53.174;5.798;2022-08-21T01:38:56;9.07;;;5.13;;
53871;SDS011;39787;53.174;5.798;2022-08-21T01:39:57;9.80;;;5.00;;
53871;SDS011;39787;53.174;5.798;2022-08-21T01:40:58;13.07;;;5.30;;
53871;SDS011;39787;53.174;5.798;2022-08-21T01:41:58;11.47;;;5.57;;
53871;SDS011;39787;53.174;5.798;2022-08-21T01:42:59;13.53;;;6.43;;
53871;SDS011;39787;53.174;5.798;2022-08-21T01:43:59;9.27;;;5.50;;
53871;SDS011;39787;53.174;5.798;2022-08-21T01:45:00;12.03;;;5.27;;
53871;SDS011;39787;53.174;5.798;2022-08-21T01:46:02;11.27;;;6.07;;
53871;SDS011;39787;53.174;5.798;2022-08-21T01:47:06;12.13;;;5.88;;
53871;SDS011;39787;53.174;5.798;2022-08-21T01:48:08;12.30;;;6.15;;
53871;SDS011;39787;53.174;5.798;2022-08-21T01:49:09;14.03;;;6.37;;
53871;SDS011;39787;53.174;5.798;2022-08-21T01:50:10;12.90;;;5.60;;
53871;SDS011;39787;53.174;5.798;2022-08-21T01:51:13;10.93;;;6.13;;
53871;SDS011;39787;53.174;5.798;2022-08-21T01:52:14;10.30;;;6.38;;
53871;SDS011;39787;53.174;5.798;2022-08-21T01:53:15;11.77;;;5.72;;
53871;SDS011;39787;53.174;5.798;2022-08-21T01:54:16;14.60;;;5.97;;
53871;SDS011;39787;53.174;5.798;2022-08-21T01:55:17;12.52;;;5.65;;
53871;SDS011;39787;53.174;5.798;2022-08-21T01:56:18;13.80;;;6.38;;
53871;SDS011;39787;53.174;5.798;2022-08-21T01:57:19;15.37;;;6.23;;
53871;SDS011;39787;53.174;5.798;2022-08-21T01:58:20;13.68;;;6.40;;
53871;SDS011;39787;53.174;5.798;2022-08-21T01:59:21;19.67;;;6.63;;
53871;SDS011;39787;53.174;5.798;2022-08-21T02:00:23;12.82;;;6.28;;
53871;SDS011;39787;53.174;5.798;2022-08-21T02:01:23;13.07;;;6.32;;
53871;SDS011;39787;53.174;5.798;2022-08-21T02:02:24;13.33;;;6.40;;
53871;SDS011;39787;53.174;5.798;2022-08-21T02:03:24;13.27;;;6.97;;
53871;SDS011;39787;53.174;5.798;2022-08-21T02:04:25;12.23;;;6.97;;
53871;SDS011;39787;53.174;5.798;2022-08-21T02:05:25;10.97;;;6.23;;
53871;SDS011;39787;53.174;5.798;2022-08-21T02:06:26;15.17;;;6.93;;
53871;SDS011;39787;53.174;5.798;2022-08-21T02:07:27;11.82;;;5.75;;
53871;SDS011;39787;53.174;5.798;2022-08-21T02:08:27;12.23;;;6.33;;
53871;SDS011;39787;53.174;5.798;2022-08-21T02:09:28;11.13;;;5.47;;
53871;SDS011;39787;53.174;5.798;2022-08-21T02:10:30;13.10;;;6.80;;
53871;SDS011;39787;53.174;5.798;2022-08-21T02:11:31;13.45;;;5.95;;
53871;SDS011;39787;53.174;5.798;2022-08-21T02:13:33;18.52;;;6.97;;
53871;SDS011;39787;53.174;5.798;2022-08-21T02:14:34;13.40;;;7.03;;
53871;SDS011;39787;53.174;5.798;2022-08-21T02:15:34;13.32;;;6.05;;
53871;SDS011;39787;53.174;5.798;2022-08-21T02:16:35;9.40;;;6.10;;
53871;SDS011;39787;53.174;5.798;2022-08-21T02:17:37;19.05;;;6.35;;
53871;SDS011;39787;53.174;5.798;2022-08-21T02:18:51;23.02;;;6.68;;
53871;SDS011;39787;53.174;5.798;2022-08-21T02:19:52;14.00;;;6.20;;
53871;SDS011;39787;53.174;5.798;2022-08-21T02:20:52;16.67;;;6.30;;
53871;SDS011;39787;53.174;5.798;2022-08-21T02:21:53;10.73;;;6.10;;
53871;SDS011;39787;53.174;5.798;2022-08-21T02:22:53;12.90;;;6.57;;
53871;SDS011;39787;53.174;5.798;2022-08-21T02:23:54;12.90;;;6.10;;
53871;SDS011;39787;53.174;5.798;2022-08-21T02:24:55;11.97;;;5.90;;
53871;SDS011;39787;53.174;5.798;2022-08-21T02:25:59;14.30;;;6.03;;
53871;SDS011;39787;53.174;5.798;2022-08-21T02:27:00;12.05;;;6.15;;
53871;SDS011;39787;53.174;5.798;2022-08-21T02:28:05;16.90;;;6.07;;
53871;SDS011;39787;53.174;5.798;2022-08-21T02:29:08;16.08;;;6.72;;
53871;SDS011;39787;53.174;5.798;2022-08-21T02:30:10;12.47;;;6.83;;
53871;SDS011;39787;53.174;5.798;2022-08-21T02:31:12;14.98;;;6.32;;
53871;SDS011;39787;53.174;5.798;2022-08-21T02:32:12;10.07;;;5.33;;
53871;SDS011;39787;53.174;5.798;2022-08-21T02:33:13;16.63;;;7.20;;
53871;SDS011;39787;53.174;5.798;2022-08-21T02:34:14;14.05;;;6.57;;
53871;SDS011;39787;53.174;5.798;2022-08-21T02:35:14;14.53;;;6.40;;
53871;SDS011;39787;53.174;5.798;2022-08-21T02:36:15;15.75;;;6.07;;
53871;SDS011;39787;53.174;5.798;2022-08-21T02:37:16;17.80;;;7.13;;
53871;SDS011;39787;53.174;5.798;2022-08-21T02:38:18;11.17;;;6.70;;
53871;SDS011;39787;53.174;5.798;2022-08-21T02:39:20;16.55;;;7.03;;
53871;SDS011;39787;53.174;5.798;2022-08-21T02:40:22;16.60;;;6.47;;
53871;SDS011;39787;53.174;5.798;2022-08-21T02:41:25;15.50;;;6.65;;
53871;SDS011;39787;53.174;5.798;2022-08-21T02:42:25;14.47;;;6.50;;
53871;SDS011;39787;53.174;5.798;2022-08-21T02:43:27;10.87;;;5.60;;
53871;SDS011;39787;53.174;5.798;2022-08-21T02:44:28;14.90;;;7.30;;
53871;SDS011;39787;53.174;5.798;2022-08-21T02:45:28;11.70;;;6.43;;
53871;SDS011;39787;53.174;5.798;2022-08-21T02:46:29;12.15;;;5.50;;
53871;SDS011;39787;53.174;5.798;2022-08-21T02:47:29;10.60;;;6.10;;
53871;SDS011;39787;53.174;5.798;2022-08-21T02:48:31;15.43;;;6.57;;
53871;SDS011;39787;53.174;5.798;2022-08-21T02:49:32;10.70;;;6.00;;
53871;SDS011;39787;53.174;5.798;2022-08-21T02:50:35;13.50;;;6.03;;
53871;SDS011;39787;53.174;5.798;2022-08-21T02:51:39;16.13;;;6.43;;
53871;SDS011;39787;53.174;5.798;2022-08-21T02:52:40;11.87;;;5.80;;
53871;SDS011;39787;53.174;5.798;2022-08-21T02:53:41;15.20;;;6.87;;
53871;SDS011;39787;53.174;5.798;2022-08-21T02:54:41;11.65;;;6.55;;
53871;SDS011;39787;53.174;5.798;2022-08-21T02:55:45;18.90;;;7.20;;
53871;SDS011;39787;53.174;5.798;2022-08-21T02:56:47;13.77;;;6.90;;
53871;SDS011;39787;53.174;5.798;2022-08-21T02:57:48;12.40;;;5.93;;
53871;SDS011;39787;53.174;5.798;2022-08-21T02:58:50;20.60;;;7.43;;
53871;SDS011;39787;53.174;5.798;2022-08-21T02:59:51;12.70;;;6.60;;
53871;SDS011;39787;53.174;5.798;2022-08-21T03:00:52;13.37;;;6.87;;
53871;SDS011;39787;53.174;5.798;2022-08-21T03:01:53;14.38;;;7.15;;
53871;SDS011;39787;53.174;5.798;2022-08-21T03:02:54;14.03;;;7.07;;
53871;SDS011;39787;53.174;5.798;2022-08-21T03:03:55;16.27;;;7.13;;
53871;SDS011;39787;53.174;5.798;2022-08-21T03:04:55;14.90;;;7.23;;
53871;SDS011;39787;53.174;5.798;2022-08-21T03:05:56;14.67;;;7.27;;
53871;SDS011;39787;53.174;5.798;2022-08-21T03:06:57;14.55;;;7.15;;
53871;SDS011;39787;53.174;5.798;2022-08-21T03:07:58;17.33;;;7.40;;
53871;SDS011;39787;53.174;5.798;2022-08-21T03:09:00;20.48;;;7.40;;
53871;SDS011;39787;53.174;5.798;2022-08-21T03:10:00;17.90;;;7.20;;
53871;SDS011;39787;53.174;5.798;2022-08-21T03:11:01;19.63;;;7.93;;
53871;SDS011;39787;53.174;5.798;2022-08-21T03:12:02;17.10;;;6.80;;
53871;SDS011;39787;53.174;5.798;2022-08-21T03:13:02;16.27;;;7.40;;
53871;SDS011;39787;53.174;5.798;2022-08-21T03:14:03;15.73;;;7.17;;
53871;SDS011;39787;53.174;5.798;2022-08-21T03:15:04;15.13;;;7.10;;
53871;SDS011;39787;53.174;5.798;2022-08-21T03:16:07;16.17;;;6.60;;
53871;SDS011;39787;53.174;5.798;2022-08-21T03:17:07;19.43;;;7.80;;
53871;SDS011;39787;53.174;5.798;2022-08-21T03:18:08;12.33;;;6.63;;
53871;SDS011;39787;53.174;5.798;2022-08-21T03:19:10;18.00;;;7.13;;
53871;SDS011;39787;53.174;5.798;2022-08-21T03:20:12;17.37;;;7.43;;
53871;SDS011;39787;53.174;5.798;2022-08-21T03:21:15;13.48;;;7.00;;
53871;SDS011;39787;53.174;5.798;2022-08-21T03:22:15;12.80;;;6.70;;
53871;SDS011;39787;53.174;5.798;2022-08-21T03:23:16;20.40;;;7.90;;
53871;SDS011;39787;53.174;5.798;2022-08-21T03:24:17;18.98;;;8.07;;
53871;SDS011;39787;53.174;5.798;2022-08-21T03:25:18;13.40;;;6.63;;
53871;SDS011;39787;53.174;5.798;2022-08-21T03:26:19;18.65;;;7.05;;
53871;SDS011;39787;53.174;5.798;2022-08-21T03:27:20;15.27;;;6.83;;
53871;SDS011;39787;53.174;5.798;2022-08-21T03:28:21;17.65;;;7.70;;
53871;SDS011;39787;53.174;5.798;2022-08-21T03:29:22;15.65;;;7.10;;
53871;SDS011;39787;53.174;5.798;2022-08-21T03:30:22;19.73;;;8.10;;
53871;SDS011;39787;53.174;5.798;2022-08-21T03:31:23;17.57;;;7.63;;
53871;SDS011;39787;53.174;5.798;2022-08-21T03:32:24;17.13;;;7.13;;
53871;SDS011;39787;53.174;5.798;2022-08-21T03:33:25;14.35;;;6.93;;
53871;SDS011;39787;53.174;5.798;2022-08-21T03:34:25;15.27;;;7.23;;
53871;SDS011;39787;53.174;5.798;2022-08-21T03:35:26;14.20;;;7.10;;
53871;SDS011;39787;53.174;5.798;2022-08-21T03:36:27;12.15;;;6.88;;
53871;SDS011;39787;53.174;5.798;2022-08-21T03:37:28;16.67;;;7.47;;
53871;SDS011;39787;53.174;5.798;2022-08-21T03:38:29;13.70;;;6.65;;
53871;SDS011;39787;53.174;5.798;2022-08-21T03:39:30;19.02;;;7.65;;
53871;SDS011;39787;53.174;5.798;2022-08-21T03:40:31;14.10;;;7.18;;
53871;SDS011;39787;53.174;5.798;2022-08-21T03:41:32;12.43;;;6.37;;
53871;SDS011;39787;53.174;5.798;2022-08-21T03:42:32;18.17;;;7.13;;
53871;SDS011;39787;53.174;5.798;2022-08-21T03:43:33;23.50;;;7.43;;
53871;SDS011;39787;53.174;5.798;2022-08-21T03:44:34;13.77;;;7.07;;
53871;SDS011;39787;53.174;5.798;2022-08-21T03:45:35;15.07;;;6.35;;
53871;SDS011;39787;53.174;5.798;2022-08-21T03:46:35;18.95;;;7.82;;
53871;SDS011;39787;53.174;5.798;2022-08-21T03:47:36;19.70;;;7.73;;
53871;SDS011;39787;53.174;5.798;2022-08-21T03:48:36;14.47;;;6.67;;
53871;SDS011;39787;53.174;5.798;2022-08-21T03:49:37;16.40;;;6.47;;
53871;SDS011;39787;53.174;5.798;2022-08-21T03:50:39;15.33;;;7.57;;
53871;SDS011;39787;53.174;5.798;2022-08-21T03:51:42;14.30;;;7.25;;
53871;SDS011;39787;53.174;5.798;2022-08-21T03:52:42;12.87;;;6.80;;
53871;SDS011;39787;53.174;5.798;2022-08-21T03:53:43;13.05;;;6.57;;
53871;SDS011;39787;53.174;5.798;2022-08-21T03:54:44;18.53;;;7.07;;
53871;SDS011;39787;53.174;5.798;2022-08-21T03:55:45;18.63;;;7.00;;
53871;SDS011;39787;53.174;5.798;2022-08-21T03:56:47;14.07;;;8.07;;
53871;SDS011;39787;53.174;5.798;2022-08-21T03:57:48;19.17;;;7.10;;
53871;SDS011;39787;53.174;5.798;2022-08-21T03:58:48;14.63;;;6.90;;
53871;SDS011;39787;53.174;5.798;2022-08-21T03:59:49;15.13;;;6.73;;
53871;SDS011;39787;53.174;5.798;2022-08-21T04:00:51;12.73;;;7.30;;
53871;SDS011;39787;53.174;5.798;2022-08-21T04:01:57;16.13;;;7.10;;
53871;SDS011;39787;53.174;5.798;2022-08-21T04:03:00;18.75;;;7.53;;
53871;SDS011;39787;53.174;5.798;2022-08-21T04:04:00;15.67;;;7.03;;
53871;SDS011;39787;53.174;5.798;2022-08-21T04:05:01;13.37;;;6.77;;
53871;SDS011;39787;53.174;5.798;2022-08-21T04:06:02;15.38;;;7.30;;
53871;SDS011;39787;53.174;5.798;2022-08-21T04:07:03;17.60;;;7.35;;
53871;SDS011;39787;53.174;5.798;2022-08-21T04:08:05;14.23;;;7.23;;
53871;SDS011;39787;53.174;5.798;2022-08-21T04:10:06;14.55;;;7.18;;
53871;SDS011;39787;53.174;5.798;2022-08-21T04:11:07;14.52;;;7.10;;
53871;SDS011;39787;53.174;5.798;2022-08-21T04:12:08;17.10;;;7.37;;
53871;SDS011;39787;53.174;5.798;2022-08-21T04:13:08;19.98;;;7.75;;
53871;SDS011;39787;53.174;5.798;2022-08-21T04:14:09;16.33;;;7.30;;
53871;SDS011;39787;53.174;5.798;2022-08-21T04:15:09;14.43;;;7.00;;
53871;SDS011;39787;53.174;5.798;2022-08-21T04:16:10;15.33;;;6.87;;
53871;SDS011;39787;53.174;5.798;2022-08-21T04:17:11;17.08;;;8.65;;
53871;SDS011;39787;53.174;5.798;2022-08-21T04:18:11;14.50;;;7.60;;
53871;SDS011;39787;53.174;5.798;2022-08-21T04:19:12;17.47;;;6.73;;
53871;SDS011;39787;53.174;5.798;2022-08-21T04:20:14;17.50;;;7.60;;
53871;SDS011;39787;53.174;5.798;2022-08-21T04:21:15;17.10;;;7.68;;
53871;SDS011;39787;53.174;5.798;2022-08-21T04:22:16;16.10;;;7.93;;
53871;SDS011;39787;53.174;5.798;2022-08-21T04:23:20;12.67;;;6.97;;
53871;SDS011;39787;53.174;5.798;2022-08-21T04:24:21;18.63;;;7.93;;
53871;SDS011;39787;53.174;5.798;2022-08-21T04:25:22;16.43;;;7.77;;
53871;SDS011;39787;53.174;5.798;2022-08-21T04:27:24;15.23;;;7.38;;
53871;SDS011;39787;53.174;5.798;2022-08-21T04:28:25;17.87;;;7.73;;
53871;SDS011;39787;53.174;5.798;2022-08-21T04:29:26;18.67;;;7.68;;
53871;SDS011;39787;53.174;5.798;2022-08-21T04:30:27;14.70;;;7.50;;
53871;SDS011;39787;53.174;5.798;2022-08-21T04:31:28;19.30;;;7.43;;
53871;SDS011;39787;53.174;5.798;2022-08-21T04:32:28;16.37;;;6.77;;
53871;SDS011;39787;53.174;5.798;2022-08-21T04:33:29;15.33;;;7.97;;
53871;SDS011;39787;53.174;5.798;2022-08-21T04:34:29;16.10;;;7.50;;
53871;SDS011;39787;53.174;5.798;2022-08-21T04:35:30;17.20;;;7.27;;
53871;SDS011;39787;53.174;5.798;2022-08-21T04:36:33;18.23;;;7.38;;
53871;SDS011;39787;53.174;5.798;2022-08-21T04:37:34;17.35;;;7.07;;
53871;SDS011;39787;53.174;5.798;2022-08-21T04:38:34;16.10;;;7.65;;
53871;SDS011;39787;53.174;5.798;2022-08-21T04:39:35;17.17;;;7.43;;
53871;SDS011;39787;53.174;5.798;2022-08-21T04:40:35;18.20;;;7.40;;
53871;SDS011;39787;53.174;5.798;2022-08-21T04:41:36;17.63;;;7.65;;
53871;SDS011;39787;53.174;5.798;2022-08-21T04:42:47;14.33;;;7.23;;
53871;SDS011;39787;53.174;5.798;2022-08-21T04:43:49;19.27;;;8.20;;
53871;SDS011;39787;53.174;5.798;2022-08-21T04:44:50;15.13;;;7.47;;
53871;SDS011;39787;53.174;5.798;2022-08-21T04:45:51;14.27;;;7.43;;
53871;SDS011;39787;53.174;5.798;2022-08-21T04:46:52;13.57;;;7.50;;
53871;SDS011;39787;53.174;5.798;2022-08-21T04:47:53;15.50;;;7.23;;
53871;SDS011;39787;53.174;5.798;2022-08-21T04:48:55;18.48;;;7.22;;
53871;SDS011;39787;53.174;5.798;2022-08-21T04:49:55;14.50;;;7.03;;
53871;SDS011;39787;53.174;5.798;2022-08-21T04:50:57;14.40;;;7.17;;
53871;SDS011;39787;53.174;5.798;2022-08-21T04:52:00;16.63;;;7.85;;
53871;SDS011;39787;53.174;5.798;2022-08-21T04:54:16;16.65;;;7.18;;
53871;SDS011;39787;53.174;5.798;2022-08-21T04:55:18;17.17;;;7.15;;
53871;SDS011;39787;53.174;5.798;2022-08-21T04:56:24;16.10;;;8.15;;
53871;SDS011;39787;53.174;5.798;2022-08-21T04:57:31;12.18;;;6.95;;
53871;SDS011;39787;53.174;5.798;2022-08-21T04:58:32;18.93;;;7.80;;
53871;SDS011;39787;53.174;5.798;2022-08-21T04:59:35;17.88;;;7.72;;
53871;SDS011;39787;53.174;5.798;2022-08-21T05:00:39;10.70;;;6.57;;
53871;SDS011;39787;53.174;5.798;2022-08-21T05:01:41;19.05;;;7.78;;
53871;SDS011;39787;53.174;5.798;2022-08-21T05:02:43;17.13;;;7.63;;
53871;SDS011;39787;53.174;5.798;2022-08-21T05:03:44;13.15;;;6.70;;
53871;SDS011;39787;53.174;5.798;2022-08-21T05:04:51;13.48;;;7.50;;
53871;SDS011;39787;53.174;5.798;2022-08-21T05:05:53;15.13;;;6.82;;
53871;SDS011;39787;53.174;5.798;2022-08-21T05:06:54;18.10;;;6.88;;
53871;SDS011;39787;53.174;5.798;2022-08-21T05:07:59;21.48;;;7.38;;
53871;SDS011;39787;53.174;5.798;2022-08-21T05:09:02;16.15;;;7.15;;
53871;SDS011;39787;53.174;5.798;2022-08-21T05:11:04;18.42;;;7.82;;
53871;SDS011;39787;53.174;5.798;2022-08-21T05:12:05;15.43;;;8.07;;
53871;SDS011;39787;53.174;5.798;2022-08-21T05:13:06;15.55;;;7.65;;
53871;SDS011;39787;53.174;5.798;2022-08-21T05:14:07;23.25;;;7.30;;
53871;SDS011;39787;53.174;5.798;2022-08-21T05:15:07;15.17;;;7.10;;
53871;SDS011;39787;53.174;5.798;2022-08-21T05:17:09;10.93;;;6.60;;
53871;SDS011;39787;53.174;5.798;2022-08-21T05:18:09;20.47;;;7.33;;
53871;SDS011;39787;53.174;5.798;2022-08-21T05:19:11;19.37;;;7.57;;
53871;SDS011;39787;53.174;5.798;2022-08-21T05:20:12;16.13;;;7.32;;
53871;SDS011;39787;53.174;5.798;2022-08-21T05:22:18;17.63;;;7.53;;
53871;SDS011;39787;53.174;5.798;2022-08-21T05:23:22;16.75;;;7.50;;
53871;SDS011;39787;53.174;5.798;2022-08-21T05:24:23;14.00;;;7.57;;
53871;SDS011;39787;53.174;5.798;2022-08-21T05:25:23;16.30;;;6.90;;
53871;SDS011;39787;53.174;5.798;2022-08-21T05:26:24;15.38;;;6.30;;
53871;SDS011;39787;53.174;5.798;2022-08-21T05:27:25;12.97;;;6.50;;
53871;SDS011;39787;53.174;5.798;2022-08-21T05:28:25;15.83;;;7.03;;
53871;SDS011;39787;53.174;5.798;2022-08-21T05:29:26;15.50;;;7.60;;
53871;SDS011;39787;53.174;5.798;2022-08-21T05:30:26;19.57;;;7.57;;
53871;SDS011;39787;53.174;5.798;2022-08-21T05:31:27;19.60;;;7.03;;
53871;SDS011;39787;53.174;5.798;2022-08-21T05:32:28;18.37;;;7.17;;
53871;SDS011;39787;53.174;5.798;2022-08-21T05:33:28;12.90;;;6.83;;
53871;SDS011;39787;53.174;5.798;2022-08-21T05:34:29;14.45;;;7.18;;
53871;SDS011;39787;53.174;5.798;2022-08-21T05:35:30;15.53;;;6.40;;
53871;SDS011;39787;53.174;5.798;2022-08-21T05:36:31;13.38;;;6.25;;
53871;SDS011;39787;53.174;5.798;2022-08-21T05:37:32;14.77;;;6.20;;
53871;SDS011;39787;53.174;5.798;2022-08-21T05:38:33;13.00;;;6.22;;
53871;SDS011;39787;53.174;5.798;2022-08-21T05:39:33;17.03;;;7.23;;
53871;SDS011;39787;53.174;5.798;2022-08-21T05:40:33;19.27;;;6.87;;
53871;SDS011;39787;53.174;5.798;2022-08-21T05:41:34;13.17;;;6.33;;
53871;SDS011;39787;53.174;5.798;2022-08-21T05:42:34;13.73;;;5.67;;
53871;SDS011;39787;53.174;5.798;2022-08-21T05:43:35;14.50;;;6.13;;
53871;SDS011;39787;53.174;5.798;2022-08-21T05:44:36;15.13;;;6.40;;
53871;SDS011;39787;53.174;5.798;2022-08-21T05:45:36;12.40;;;6.43;;
53871;SDS011;39787;53.174;5.798;2022-08-21T05:46:37;16.00;;;7.10;;
53871;SDS011;39787;53.174;5.798;2022-08-21T05:47:37;15.07;;;6.65;;
53871;SDS011;39787;53.174;5.798;2022-08-21T05:48:38;16.67;;;6.07;;
53871;SDS011;39787;53.174;5.798;2022-08-21T05:49:38;20.33;;;6.33;;
53871;SDS011;39787;53.174;5.798;2022-08-21T05:50:39;19.13;;;6.97;;
53871;SDS011;39787;53.174;5.798;2022-08-21T05:51:40;10.60;;;5.85;;
53871;SDS011;39787;53.174;5.798;2022-08-21T05:52:41;18.10;;;6.03;;
53871;SDS011;39787;53.174;5.798;2022-08-21T05:53:42;21.40;;;6.80;;
53871;SDS011;39787;53.174;5.798;2022-08-21T05:55:44;10.88;;;5.63;;
53871;SDS011;39787;53.174;5.798;2022-08-21T05:56:45;16.20;;;6.13;;
53871;SDS011;39787;53.174;5.798;2022-08-21T05:57:45;17.07;;;6.70;;
53871;SDS011;39787;53.174;5.798;2022-08-21T05:58:46;14.10;;;5.97;;
53871;SDS011;39787;53.174;5.798;2022-08-21T05:59:46;17.57;;;6.13;;
53871;SDS011;39787;53.174;5.798;2022-08-21T06:00:48;13.05;;;5.70;;
53871;SDS011;39787;53.174;5.798;2022-08-21T06:01:50;16.15;;;5.68;;
53871;SDS011;39787;53.174;5.798;2022-08-21T06:02:50;16.30;;;5.97;;
53871;SDS011;39787;53.174;5.798;2022-08-21T06:03:51;23.33;;;6.43;;
53871;SDS011;39787;53.174;5.798;2022-08-21T06:04:51;11.53;;;6.33;;
53871;SDS011;39787;53.174;5.798;2022-08-21T06:05:52;12.57;;;5.78;;
53871;SDS011;39787;53.174;5.798;2022-08-21T06:06:53;16.33;;;6.13;;
53871;SDS011;39787;53.174;5.798;2022-08-21T06:07:54;15.87;;;6.50;;
53871;SDS011;39787;53.174;5.798;2022-08-21T06:08:54;19.47;;;6.33;;
53871;SDS011;39787;53.174;5.798;2022-08-21T06:09:55;14.83;;;5.83;;
53871;SDS011;39787;53.174;5.798;2022-08-21T06:10:56;12.63;;;6.00;;
53871;SDS011;39787;53.174;5.798;2022-08-21T06:12:02;17.83;;;5.80;;
53871;SDS011;39787;53.174;5.798;2022-08-21T06:13:07;19.75;;;5.97;;